Time;durP1;ratioP1;P1;durP2;ratioP2;P2;SDS_P1;SDS_P2;PMS_P1;PMS_P2;Temp;Humidity;BMP_temperature;BMP_pressure;BME280_temperature;BME280_humidity;BME280_pressure;Samples;Min_cycle;Max_cycle;Signal;HPM_P1;HPM_P2
2022/07/11 00:02:04;;;;;;;20.73;12.63;;;;;;;28.09;35.24;96905.31;5075458;28;20111;-31
2022/07/11 00:04:30;;;;;;;26.38;14.02;;;;;;;28.08;34.81;96898.97;5075487;28;20090;-31
2022/07/11 00:06:56;;;;;;;28.60;15.27;;;;;;;28.08;35.39;96896.19;5073534;28;20482;-31
2022/07/11 00:09:22;;;;;;;22.92;14.00;;;;;;;28.07;34.83;96893.94;5075285;28;20128;-31
2022/07/11 00:11:47;;;;;;;26.95;15.20;;;;;;;28.08;35.11;96896.19;5075123;28;20529;-30
2022/07/11 00:14:14;;;;;;;28.80;16.48;;;;;;;28.09;35.05;96897.69;5075004;28;20094;-30
2022/07/11 00:16:39;;;;;;;27.70;15.27;;;;;;;28.09;34.73;96891.38;5074919;28;20035;-30
2022/07/11 00:19:05;;;;;;;28.02;15.98;;;;;;;28.07;34.81;96889.09;5074773;28;20390;-30
2022/07/11 00:21:33;;;;;;;23.02;15.43;;;;;;;28.08;34.92;96887.06;5074965;28;20397;-30
2022/07/11 00:23:59;;;;;;;26.13;15.45;;;;;;;28.08;34.73;96893.41;5074619;28;20111;-31
2022/07/11 00:26:25;;;;;;;28.23;15.43;;;;;;;28.06;34.74;96889.66;5074850;28;20048;-30
2022/07/11 00:28:50;;;;;;;28.52;16.25;;;;;;;28.06;34.62;96887.63;5074782;28;20433;-30
2022/07/11 00:31:16;;;;;;;23.65;13.95;;;;;;;28.04;34.72;96889.44;5074717;28;20024;-30
2022/07/11 00:33:41;;;;;;;26.98;15.43;;;;;;;28.05;34.99;96888.91;5074503;28;20107;-31
2022/07/11 00:36:07;;;;;;;26.90;14.85;;;;;;;28.04;35.27;96887.41;5074720;28;20024;-30
2022/07/11 00:38:32;;;;;;;25.50;12.90;;;;;;;28.06;34.61;96889.66;5074409;28;20052;-31
2022/07/11 00:40:58;;;;;;;23.08;13.00;;;;;;;28.06;34.57;96884.84;5074514;28;20402;-30
2022/07/11 00:43:35;;;;;;;24.73;12.50;;;;;;;28.03;34.78;96874.75;5074325;28;20385;-30
2022/07/11 00:46:02;;;;;;;20.48;11.07;;;;;;;28.06;34.60;96881.28;5074469;28;20052;-30
2022/07/11 00:48:27;;;;;;;19.38;11.60;;;;;;;28.03;34.67;96879.56;5074192;28;20469;-30
2022/07/11 00:50:54;;;;;;;21.65;11.68;;;;;;;28.03;34.53;96880.31;5074365;28;20108;-30
2022/07/11 00:53:26;;;;;;;17.10;9.95;;;;;;;28.00;34.98;96870.22;5074259;28;20095;-30
2022/07/11 00:55:53;;;;;;;14.50;10.18;;;;;;;28.00;34.69;96875.06;5074168;28;20393;-30
2022/07/11 00:58:19;;;;;;;15.05;8.98;;;;;;;28.03;34.43;96874.00;5074275;28;20025;-30
2022/07/11 01:00:45;;;;;;;16.33;8.90;;;;;;;28.02;34.90;96870.44;5074041;28;20050;-30
2022/07/11 01:03:11;;;;;;;14.27;8.82;;;;;;;28.03;34.65;96880.31;5073218;28;20024;-30
2022/07/11 01:05:37;;;;;;;12.93;8.27;;;;;;;28.03;34.90;96868.41;5074061;28;20131;-31
2022/07/11 01:08:03;;;;;;;13.35;7.88;;;;;;;27.97;34.52;96876.88;5073775;28;20111;-31
2022/07/11 01:10:28;;;;;;;11.10;7.15;;;;;;;28.02;34.40;96873.25;5083093;28;20032;-30
2022/07/11 01:12:54;;;;;;;11.25;7.50;;;;;;;28.01;34.88;96870.97;5088918;28;20054;-30
2022/07/11 01:15:20;;;;;;;10.60;6.65;;;;;;;28.01;34.79;96874.53;5093746;28;20085;-30
2022/07/11 01:17:46;;;;;;;12.10;6.28;;;;;;;27.99;34.79;96874.28;5094217;28;20044;-30
2022/07/11 01:20:11;;;;;;;9.32;5.90;;;;;;;28.04;34.47;96873.47;5094008;28;20028;-31
2022/07/11 01:22:43;;;;;;;9.45;5.80;;;;;;;28.01;35.00;96871.72;5094013;28;20435;-30
2022/07/11 01:25:09;;;;;;;8.27;5.80;;;;;;;28.01;34.76;96868.94;5093899;28;20528;-30
2022/07/11 01:27:36;;;;;;;8.90;5.50;;;;;;;28.02;34.54;96867.66;5093928;28;20028;-30
2022/07/11 01:30:04;;;;;;;10.30;5.38;;;;;;;27.99;34.80;96865.94;5094092;28;20024;-31
2022/07/11 01:32:30;;;;;;;8.85;5.13;;;;;;;28.00;34.90;96870.22;5093892;28;20024;-30
2022/07/11 01:34:55;;;;;;;7.55;4.75;;;;;;;28.01;34.74;96860.59;5093833;28;20055;-30
2022/07/11 01:37:21;;;;;;;7.00;4.57;;;;;;;28.01;34.81;96868.94;5093608;28;20108;-31
2022/07/11 01:39:46;;;;;;;6.05;4.18;;;;;;;28.01;34.85;96865.41;5093503;28;20049;-31
2022/07/11 01:42:11;;;;;;;7.68;4.60;;;;;;;28.04;34.58;96859.53;5093984;28;20077;-30
2022/07/11 01:44:37;;;;;;;6.88;4.60;;;;;;;28.01;34.91;96857.78;5093619;28;20070;-30
2022/07/11 01:47:02;;;;;;;7.72;4.15;;;;;;;28.01;34.84;96862.63;5093464;28;20077;-30
2022/07/11 01:49:29;;;;;;;6.72;4.07;;;;;;;28.00;35.03;96853.50;5093687;28;20020;-30
2022/07/11 01:51:56;;;;;;;7.75;3.70;;;;;;;28.00;35.39;96858.31;5093512;28;20046;-30
2022/07/11 01:54:21;;;;;;;5.88;3.50;;;;;;;28.00;34.83;96864.66;5093582;28;20490;-32
2022/07/11 01:56:47;;;;;;;5.47;3.80;;;;;;;28.00;34.98;96861.88;5092056;28;20028;-31
2022/07/11 01:59:27;;;;;;;5.65;3.40;;;;;;;27.99;35.21;96860.34;5093573;28;20032;-30
2022/07/11 02:01:53;;;;;;;6.28;3.40;;;;;;;27.97;34.93;96865.72;5093282;28;20057;-30
2022/07/11 02:04:19;;;;;;;4.70;2.83;;;;;;;27.99;34.94;96868.72;5092119;28;20024;-30
2022/07/11 02:06:44;;;;;;;6.30;3.28;;;;;;;28.01;35.17;96865.41;5093455;28;20051;-30
2022/07/11 02:09:10;;;;;;;5.55;3.28;;;;;;;27.99;35.30;96865.94;5093350;28;20032;-30
2022/07/11 02:11:35;;;;;;;5.20;3.15;;;;;;;27.99;34.99;96863.16;5093488;28;20039;-30
2022/07/11 02:14:02;;;;;;;4.22;2.88;;;;;;;27.96;35.76;96863.44;5095866;28;20565;-30
2022/07/11 02:16:27;;;;;;;4.03;3.10;;;;;;;28.00;35.56;96867.44;5097334;28;20055;-30
2022/07/11 02:18:53;;;;;;;4.20;2.88;;;;;;;27.98;35.84;96866.47;5097535;28;20063;-30
2022/07/11 02:21:19;;;;;;;4.95;3.00;;;;;;;27.98;35.36;96866.47;5097663;28;20031;-31
2022/07/11 02:23:44;;;;;;;7.28;3.28;;;;;;;27.94;35.44;96866.78;5097288;28;20031;-30
2022/07/11 02:26:10;;;;;;;3.67;3.00;;;;;;;28.01;35.38;96871.72;5097326;28;20027;-30
2022/07/11 02:28:36;;;;;;;5.50;3.00;;;;;;;28.02;35.59;96873.25;5097235;28;20125;-30
2022/07/11 02:31:02;;;;;;;5.38;3.20;;;;;;;27.97;35.84;96871.28;5097286;28;20146;-30
2022/07/11 02:33:28;;;;;;;4.40;2.97;;;;;;;27.98;35.52;96872.78;5097277;28;20052;-30
2022/07/11 02:35:53;;;;;;;3.95;3.22;;;;;;;28.01;35.68;96874.53;5097228;28;20483;-32
2022/07/11 02:38:19;;;;;;;5.03;3.25;;;;;;;28.02;35.49;96873.25;5097236;28;20024;-30
2022/07/11 02:40:45;;;;;;;4.32;3.13;;;;;;;28.01;35.65;96876.56;5097147;28;20028;-30
2022/07/11 02:43:11;;;;;;;5.57;3.13;;;;;;;28.00;35.74;96875.81;5096917;28;20102;-30
2022/07/11 02:45:36;;;;;;;5.22;3.40;;;;;;;27.98;36.10;96877.63;5096908;28;20111;-31
2022/07/11 02:48:02;;;;;;;4.72;3.55;;;;;;;27.94;36.16;96872.38;5096802;28;20061;-32
2022/07/11 02:50:27;;;;;;;6.43;3.40;;;;;;;27.97;36.04;96868.50;5096963;28;20026;-31
2022/07/11 02:52:53;;;;;;;4.13;3.25;;;;;;;27.97;35.91;96876.09;5096840;28;20427;-30
2022/07/11 02:55:18;;;;;;;4.28;3.33;;;;;;;27.99;35.86;96879.13;5095354;28;20020;-30
2022/07/11 02:57:44;;;;;;;4.90;2.90;;;;;;;27.98;35.49;96867.22;5096667;28;20045;-30
2022/07/11 03:00:14;;;;;;;3.85;2.80;;;;;;;27.92;36.12;96872.16;5096657;28;20385;-31
2022/07/11 03:02:40;;;;;;;4.50;2.97;;;;;;;27.94;36.05;96872.38;5095483;28;20362;-30
2022/07/11 03:05:06;;;;;;;3.53;2.80;;;;;;;27.93;35.88;96864.53;5096586;28;20171;-30
2022/07/11 03:07:31;;;;;;;4.80;3.13;;;;;;;27.96;36.18;96857.88;5096378;28;20075;-30
2022/07/11 03:09:57;;;;;;;4.75;3.08;;;;;;;27.94;35.95;96866.03;5096510;28;20059;-31
2022/07/11 03:12:23;;;;;;;4.32;3.05;;;;;;;27.96;35.77;96867.00;5096465;28;20457;-30
2022/07/11 03:14:49;;;;;;;4.03;2.90;;;;;;;27.92;36.01;96866.56;5096356;28;20020;-30
2022/07/11 03:17:16;;;;;;;4.55;2.92;;;;;;;27.92;36.34;96869.34;5096229;28;20070;-30
2022/07/11 03:19:42;;;;;;;4.43;3.13;;;;;;;27.92;35.80;96865.81;5096296;28;20461;-30
2022/07/11 03:22:07;;;;;;;4.63;3.30;;;;;;;27.92;35.83;96868.59;5096127;28;20101;-30
2022/07/11 03:24:33;;;;;;;5.82;2.92;;;;;;;27.93;36.12;96868.06;5095669;28;20050;-31
2022/07/11 03:26:58;;;;;;;4.80;3.17;;;;;;;27.94;35.78;96866.03;5096324;28;20016;-30
2022/07/11 03:29:24;;;;;;;5.10;3.50;;;;;;;27.92;36.16;96868.59;5096292;28;20023;-31
2022/07/11 03:31:49;;;;;;;5.95;3.45;;;;;;;27.92;35.85;96872.16;5095989;28;20478;-30
2022/07/11 03:34:15;;;;;;;6.22;3.72;;;;;;;27.92;36.55;96869.34;5095877;28;20103;-32
2022/07/11 03:36:40;;;;;;;7.18;4.15;;;;;;;27.90;36.02;96866.34;5095923;28;20020;-30
2022/07/11 03:39:07;;;;;;;7.68;4.57;;;;;;;27.92;36.29;96874.19;5095951;28;20405;-30
2022/07/11 03:41:32;;;;;;;7.60;4.95;;;;;;;27.88;35.99;96875.25;5095919;28;20109;-30
2022/07/11 03:43:59;;;;;;;7.82;4.60;;;;;;;27.89;36.01;96860.03;5095660;28;20057;-31
2022/07/11 03:46:24;;;;;;;10.38;5.53;;;;;;;27.87;36.17;96864.63;5095902;28;20069;-30
2022/07/11 03:48:50;;;;;;;8.68;5.30;;;;;;;27.90;35.97;96866.34;5095580;28;20428;-31
2022/07/11 03:51:19;;;;;;;10.45;5.47;;;;;;;27.93;36.12;96870.88;5096311;28;20110;-31
2022/07/11 03:53:44;;;;;;;7.63;5.00;;;;;;;27.88;36.29;96866.88;5095966;28;20023;-31
2022/07/11 03:56:10;;;;;;;9.88;5.20;;;;;;;27.90;36.36;96877.50;5095751;28;20019;-30
2022/07/11 03:58:35;;;;;;;9.50;6.00;;;;;;;27.89;36.30;96876.00;5095484;28;20416;-30
2022/07/11 04:01:01;;;;;;;8.27;5.47;;;;;;;27.86;36.46;96882.63;5095513;28;20073;-30
2022/07/11 04:03:26;;;;;;;9.38;5.88;;;;;;;27.87;36.00;96878.56;5095415;28;20103;-30
2022/07/11 04:05:52;;;;;;;8.55;5.40;;;;;;;27.87;36.31;96881.34;5094183;28;20038;-30
2022/07/11 04:08:18;;;;;;;8.20;5.45;;;;;;;27.86;36.23;96877.03;5095245;28;20043;-30
2022/07/11 04:10:43;;;;;;;9.63;5.43;;;;;;;27.84;36.26;96880.38;5095107;28;20024;-30
2022/07/11 04:13:09;;;;;;;9.07;5.50;;;;;;;27.83;36.51;96878.09;5095580;28;20032;-30
2022/07/11 04:15:34;;;;;;;9.10;5.55;;;;;;;27.86;36.47;96883.38;5095439;28;20016;-30
2022/07/11 04:18:00;;;;;;;11.20;5.47;;;;;;;27.84;36.11;96877.56;5095229;28;20051;-31
2022/07/11 04:20:26;;;;;;;9.35;6.10;;;;;;;27.88;36.13;96886.38;5095012;28;20028;-30
2022/07/11 04:22:51;;;;;;;10.07;5.55;;;;;;;27.84;35.96;96885.94;5095223;28;20032;-32
2022/07/11 04:25:17;;;;;;;9.23;5.55;;;;;;;27.85;36.48;96889.47;5094919;28;20028;-30
2022/07/11 04:27:42;;;;;;;10.82;5.05;;;;;;;27.87;36.43;96893.25;5095029;28;20024;-30
2022/07/11 04:30:08;;;;;;;7.07;4.35;;;;;;;27.84;36.18;96885.94;5094866;28;20027;-30
2022/07/11 04:32:35;;;;;;;8.38;4.63;;;;;;;27.84;36.46;96899.13;5094864;28;20038;-30
2022/07/11 04:35:02;;;;;;;10.35;4.68;;;;;;;27.91;36.28;96895.72;5095492;28;20049;-30
2022/07/11 04:37:27;;;;;;;9.65;4.53;;;;;;;27.86;36.57;96891.75;5093992;28;20472;-30
2022/07/11 04:39:52;;;;;;;8.27;4.07;;;;;;;27.87;36.28;96895.28;5095112;28;20040;-30
2022/07/11 04:42:18;;;;;;;9.32;3.97;;;;;;;27.88;36.07;96891.97;5094670;28;20103;-30
2022/07/11 04:44:43;;;;;;;7.53;4.30;;;;;;;27.87;36.47;96895.28;5094572;28;20052;-31
2022/07/11 04:47:10;;;;;;;7.97;4.82;;;;;;;27.81;36.42;96903.75;5094547;28;20016;-30
2022/07/11 04:49:36;;;;;;;11.30;5.07;;;;;;;27.85;36.57;96904.16;5094679;28;20103;-30
2022/07/11 04:52:01;;;;;;;7.82;4.30;;;;;;;27.87;36.37;96912.75;5094339;28;20048;-31
2022/07/11 04:54:27;;;;;;;6.97;4.65;;;;;;;27.86;36.76;96905.69;5094593;28;20473;-30
2022/07/11 04:56:52;;;;;;;7.35;4.07;;;;;;;27.86;36.71;96899.34;5094219;28;20024;-30
2022/07/11 04:59:18;;;;;;;6.80;4.07;;;;;;;27.83;36.49;96905.97;5094356;28;20028;-31
2022/07/11 05:01:44;;;;;;;8.90;4.32;;;;;;;27.87;36.43;96909.97;5094391;28;20028;-31
2022/07/11 05:04:10;;;;;;;8.18;4.05;;;;;;;27.90;36.31;96905.38;5094942;28;20069;-30
2022/07/11 05:06:35;;;;;;;7.75;3.88;;;;;;;27.86;36.59;96902.88;5093891;28;20032;-30
2022/07/11 05:09:02;;;;;;;5.32;3.85;;;;;;;27.85;36.74;96911.78;5094261;28;20028;-30
2022/07/11 05:11:27;;;;;;;5.55;3.70;;;;;;;27.86;36.48;96916.06;5094370;28;20519;-30
2022/07/11 05:13:53;;;;;;;5.50;3.58;;;;;;;27.86;36.68;96914.03;5094162;28;20024;-30
2022/07/11 05:16:18;;;;;;;6.18;3.40;;;;;;;27.83;36.91;96917.13;5094146;28;20182;-30
2022/07/11 05:18:43;;;;;;;5.75;3.50;;;;;;;27.85;36.97;96915.31;5094001;28;20030;-30
2022/07/11 05:21:09;;;;;;;6.22;3.42;;;;;;;27.87;37.03;96920.38;5093922;28;20063;-30
2022/07/11 05:23:34;;;;;;;4.28;2.90;;;;;;;27.86;37.00;96914.03;5087258;28;20016;-30
2022/07/11 05:26:00;;;;;;;4.00;2.85;;;;;;;27.83;37.12;96917.13;5079663;28;20111;-30
2022/07/11 05:28:26;;;;;;;4.25;2.92;;;;;;;27.85;37.25;96920.88;5071640;28;20093;-30
2022/07/11 05:30:52;;;;;;;4.85;2.50;;;;;;;27.85;37.08;96925.72;5090177;28;20049;-30
2022/07/11 05:33:17;;;;;;;5.80;2.70;;;;;;;27.80;37.37;96921.75;5091930;28;20085;-30
2022/07/11 05:35:43;;;;;;;4.75;2.67;;;;;;;27.84;37.58;96924.22;5091478;28;20028;-30
2022/07/11 05:38:08;;;;;;;4.57;2.45;;;;;;;27.79;37.80;96923.03;5091650;28;20159;-30
2022/07/11 05:40:34;;;;;;;6.70;2.55;;;;;;;27.84;37.19;96935.34;5091853;28;20032;-31
2022/07/11 05:43:00;;;;;;;4.07;2.42;;;;;;;27.79;37.28;96931.38;5073138;28;20028;-30
2022/07/11 05:45:26;;;;;;;4.63;2.67;;;;;;;27.84;37.22;96935.34;5071492;28;20020;-30
2022/07/11 05:47:57;;;;;;;2.70;2.50;;;;;;;27.84;37.40;96940.94;5070903;28;20061;-32
2022/07/11 05:50:23;;;;;;;3.92;2.45;;;;;;;27.83;37.77;96939.41;5071469;28;20073;-30
2022/07/11 05:52:48;;;;;;;4.07;2.55;;;;;;;27.86;37.66;96939.13;5071452;28;20429;-30
2022/07/11 05:55:14;;;;;;;5.15;2.45;;;;;;;27.87;37.62;96945.44;5071336;28;20020;-30
2022/07/11 05:57:39;;;;;;;2.97;2.05;;;;;;;27.74;37.77;96945.41;5071873;28;20457;-30
2022/07/11 06:00:05;;;;;;;3.15;2.10;;;;;;;27.82;37.62;96949.06;5072209;28;20024;-31
2022/07/11 06:02:30;;;;;;;3.17;2.10;;;;;;;27.81;37.89;96948.34;5079995;28;20077;-30
2022/07/11 06:04:56;;;;;;;3.80;2.20;;;;;;;27.78;37.93;96954.22;5091534;28;20146;-30
2022/07/11 06:10:07;;;;;;;3.28;2.08;;;;;;;27.81;38.01;96950.38;5071002;28;20058;-30
2022/07/11 06:12:32;;;;;;;4.13;1.92;;;;;;;27.82;37.73;96946.28;5070822;28;20428;-30
2022/07/11 06:14:57;;;;;;;3.92;1.92;;;;;;;27.81;37.37;96955.94;5071163;28;20103;-30
2022/07/11 06:17:23;;;;;;;3.45;1.92;;;;;;;27.84;38.19;96952.84;5071018;28;20510;-30
2022/07/11 06:19:48;;;;;;;3.63;1.90;;;;;;;27.81;37.87;96950.38;5086713;28;20450;-31
2022/07/11 06:22:14;;;;;;;4.03;2.00;;;;;;;27.80;38.14;96954.44;5089696;28;20020;-30
2022/07/11 06:24:39;;;;;;;3.13;1.83;;;;;;;27.83;37.97;96956.16;5091137;28;20048;-30
2022/07/11 06:27:05;;;;;;;2.22;1.90;;;;;;;27.84;38.30;96963.97;5091165;28;20481;-30
2022/07/11 06:29:30;;;;;;;1.95;1.63;;;;;;;27.87;37.76;96951.03;5090974;28;20036;-30
2022/07/11 06:31:56;;;;;;;2.40;1.90;;;;;;;27.87;38.18;96962.19;5091071;28;20023;-30
2022/07/11 06:34:21;;;;;;;2.53;1.85;;;;;;;27.85;37.91;96965.50;5091040;28;20045;-30
2022/07/11 06:36:47;;;;;;;2.17;1.65;;;;;;;27.80;38.13;96968.38;5090650;28;20039;-31
2022/07/11 06:39:13;;;;;;;2.80;1.88;;;;;;;27.83;37.98;96967.28;5091027;28;20060;-31
2022/07/11 06:41:39;;;;;;;2.83;1.80;;;;;;;27.82;38.28;96969.31;5090914;28;20028;-30
2022/07/11 06:44:04;;;;;;;2.63;1.50;;;;;;;27.82;38.12;96971.34;5090791;28;20115;-31
2022/07/11 06:46:30;;;;;;;2.83;1.80;;;;;;;27.80;38.17;96963.56;5091036;28;20102;-30
2022/07/11 06:48:55;;;;;;;2.78;1.70;;;;;;;27.80;37.86;96971.16;5090687;28;20027;-30
2022/07/11 06:51:22;;;;;;;2.88;1.80;;;;;;;27.81;38.03;96964.31;5090755;28;20038;-30
2022/07/11 06:53:47;;;;;;;2.45;1.80;;;;;;;27.80;37.92;96971.91;5090930;28;20028;-30
2022/07/11 06:56:13;;;;;;;2.78;1.80;;;;;;;27.77;38.34;96975.00;5076112;28;20035;-30
2022/07/11 06:58:38;;;;;;;1.83;1.38;;;;;;;27.81;37.78;96975.47;5070355;28;20432;-30
2022/07/11 07:01:06;;;;;;;2.83;1.60;;;;;;;27.83;37.97;96976.41;5072825;28;20029;-30
2022/07/11 07:03:33;;;;;;;3.90;1.88;;;;;;;27.79;37.88;96981.56;5073047;28;20024;-30
2022/07/11 07:06:00;;;;;;;2.10;1.48;;;;;;;27.79;37.93;96983.59;5074156;28;20024;-30
2022/07/11 07:08:26;;;;;;;2.25;1.83;;;;;;;27.77;37.96;96991.72;5074141;28;20044;-30
2022/07/11 07:10:53;;;;;;;1.83;1.40;;;;;;;27.79;38.31;96989.16;5074328;28;20037;-30
2022/07/11 07:13:20;;;;;;;1.92;1.52;;;;;;;27.77;37.94;96992.47;5074086;28;20037;-30
2022/07/11 07:15:46;;;;;;;3.58;1.50;;;;;;;27.82;37.87;96994.41;5074106;28;20020;-31
2022/07/11 07:18:12;;;;;;;2.42;1.80;;;;;;;27.78;38.34;97001.59;5074126;28;20074;-30
2022/07/11 07:20:37;;;;;;;3.00;1.90;;;;;;;27.80;37.63;96997.00;5074154;28;20040;-31
2022/07/11 07:23:03;;;;;;;2.40;1.48;;;;;;;27.76;37.88;97001.34;5072093;28;20024;-30
2022/07/11 07:25:28;;;;;;;3.03;1.60;;;;;;;27.79;38.15;96995.50;5073755;28;20024;-30
2022/07/11 07:27:54;;;;;;;1.75;1.55;;;;;;;27.82;37.83;96999.22;5073891;28;20027;-31
2022/07/11 07:30:19;;;;;;;2.33;1.67;;;;;;;27.79;37.74;96989.16;5073769;28;20376;-30
2022/07/11 07:32:45;;;;;;;1.77;1.50;;;;;;;27.71;37.97;97002.19;5073715;28;20058;-31
2022/07/11 07:35:10;;;;;;;2.50;1.50;;;;;;;27.76;37.65;96999.31;5074815;28;20028;-30
2022/07/11 07:37:36;;;;;;;3.03;1.65;;;;;;;27.77;38.04;97009.19;5075661;28;20025;-30
2022/07/11 07:40:02;;;;;;;3.53;1.70;;;;;;;27.26;39.56;97011.09;5075477;28;20024;-30
2022/07/11 07:42:27;;;;;;;3.85;1.75;;;;;;;25.82;43.07;97013.84;5075521;28;20386;-30
2022/07/11 07:44:53;;;;;;;3.45;1.80;;;;;;;26.48;41.24;97015.41;5075622;28;20025;-29
2022/07/11 07:47:20;;;;;;;4.10;1.75;;;;;;;26.94;40.37;97018.56;5075719;28;20383;-30
2022/07/11 07:49:45;;;;;;;1.73;1.50;;;;;;;27.26;39.31;97010.34;5075690;28;20020;-30
2022/07/11 07:52:11;;;;;;;4.15;1.45;;;;;;;27.45;38.76;97014.63;5075431;28;20055;-29
2022/07/11 07:54:37;;;;;;;3.45;1.65;;;;;;;27.47;38.85;97011.34;5075531;28;20107;-30
2022/07/11 07:57:03;;;;;;;1.83;1.35;;;;;;;27.41;39.01;97017.00;5073799;28;20362;-29
2022/07/11 07:59:29;;;;;;;3.58;1.60;;;;;;;27.45;38.49;97023.00;5075031;28;20020;-31
2022/07/11 08:01:54;;;;;;;3.03;1.50;;;;;;;27.49;38.42;97014.34;5074688;28;20105;-29
2022/07/11 08:04:19;;;;;;;2.88;1.63;;;;;;;27.52;38.11;97018.88;5074342;28;20386;-30
2022/07/11 08:06:45;;;;;;;3.00;1.55;;;;;;;27.57;38.06;97020.84;5074932;28;20494;-31
2022/07/11 08:09:12;;;;;;;4.40;1.52;;;;;;;27.52;38.57;97016.84;5075349;28;20070;-31
2022/07/11 08:11:38;;;;;;;2.33;1.27;;;;;;;27.53;38.14;97018.34;5074899;28;20024;-29
2022/07/11 08:14:04;;;;;;;2.15;1.52;;;;;;;27.56;38.18;97011.00;5075069;28;20105;-29
2022/07/11 08:16:32;;;;;;;4.70;1.50;;;;;;;27.55;38.17;97006.69;5074851;28;20494;-30
2022/07/11 08:18:59;;;;;;;2.28;1.50;;;;;;;27.59;37.88;97009.19;5074862;28;20028;-29
2022/07/11 08:21:25;;;;;;;2.50;1.30;;;;;;;27.38;38.60;97012.47;5074784;28;20021;-29
2022/07/11 08:23:51;;;;;;;2.70;1.40;;;;;;;27.38;38.35;97004.09;5074798;28;20029;-30
2022/07/11 08:26:16;;;;;;;2.55;1.30;;;;;;;27.50;37.85;97008.25;5073507;28;20039;-29
2022/07/11 08:28:42;;;;;;;2.22;1.30;;;;;;;27.54;38.33;97008.72;5074702;28;20459;-29
2022/07/11 08:31:08;;;;;;;2.13;1.52;;;;;;;27.49;37.87;97003.97;5074850;28;20050;-29
2022/07/11 08:33:34;;;;;;;3.90;1.45;;;;;;;27.38;38.10;97006.88;5074499;28;20154;-28
2022/07/11 08:35:59;;;;;;;1.95;1.50;;;;;;;27.35;38.16;97001.59;5074537;28;20052;-29
2022/07/11 08:38:25;;;;;;;1.75;1.40;;;;;;;27.37;38.30;97002.59;5074562;28;20016;-29
2022/07/11 08:40:51;;;;;;;2.95;1.60;;;;;;;27.35;38.00;97007.94;5074584;28;20060;-29
2022/07/11 08:43:21;;;;;;;3.03;1.15;;;;;;;27.46;37.94;96999.44;5074309;28;20024;-29
2022/07/11 08:45:48;;;;;;;4.95;1.55;;;;;;;27.56;37.80;96993.53;5074437;28;20117;-29
2022/07/11 08:48:15;;;;;;;1.70;1.40;;;;;;;27.46;38.03;96998.69;5074319;28;20070;-30
2022/07/11 08:50:40;;;;;;;4.47;1.63;;;;;;;27.42;37.70;96996.22;5074304;28;20043;-29
2022/07/11 08:53:06;;;;;;;3.63;1.45;;;;;;;27.36;37.56;97000.34;5074294;28;20016;-29
2022/07/11 08:55:32;;;;;;;2.22;1.33;;;;;;;27.27;38.16;96993.09;5074344;28;20024;-29
2022/07/11 08:57:58;;;;;;;1.80;1.40;;;;;;;27.38;37.50;96995.75;5074014;28;20116;-30
2022/07/11 09:00:24;;;;;;;4.07;1.50;;;;;;;27.30;37.75;97006.00;5074442;28;20103;-29
2022/07/11 09:02:49;;;;;;;3.78;1.30;;;;;;;27.32;37.55;96997.88;5074052;28;20055;-29
2022/07/11 09:05:15;;;;;;;1.83;1.38;;;;;;;27.42;37.60;97001.78;5073981;28;20056;-29
2022/07/11 09:07:49;;;;;;;2.47;1.30;;;;;;;27.33;37.48;96996.56;5073893;28;20048;-29
2022/07/11 09:10:18;;;;;;;1.60;1.50;;;;;;;27.41;37.11;97003.06;5073832;28;20123;-30
2022/07/11 09:13:00;;;;;;;3.35;1.40;;;;;;;27.49;36.84;97006.75;5074044;28;20028;-30
2022/07/11 09:15:43;;;;;;;1.90;1.27;;;;;;;27.38;36.97;97000.56;5072687;28;20094;-29
2022/07/11 09:18:41;;;;;;;3.20;1.20;;;;;;;27.45;37.02;96997.19;5072313;28;20078;-29
2022/07/11 09:26:40;;;;;;;3.10;1.40;;;;;;;27.45;35.84;96999.97;5073830;28;20105;-30
2022/07/11 09:29:25;;;;;;;2.90;1.33;;;;;;;27.57;35.95;97001.34;5075262;28;20073;-29
2022/07/11 09:31:51;;;;;;;2.85;1.38;;;;;;;27.66;35.74;97000.25;5081165;28;20024;-31
2022/07/11 09:34:19;;;;;;;3.53;1.33;;;;;;;27.66;35.76;97003.03;5091666;28;20027;-30
2022/07/11 09:36:47;;;;;;;3.88;1.50;;;;;;;27.54;35.47;97007.97;5087114;28;20121;-30
2022/07/11 09:39:15;;;;;;;3.55;1.20;;;;;;;27.51;35.42;97001.41;5093342;28;20384;-31
2022/07/11 09:41:42;;;;;;;1.65;1.40;;;;;;;27.42;36.02;97003.81;5093817;28;20030;-30
2022/07/11 09:44:21;;;;;;;3.08;1.30;;;;;;;27.52;34.98;97002.16;5092335;28;20023;-29
2022/07/11 09:46:49;;;;;;;1.65;1.00;;;;;;;27.22;33.98;97002.28;5093898;28;20024;-30
2022/07/11 09:49:16;;;;;;;2.97;1.15;;;;;;;27.32;34.82;97009.00;5093620;28;20020;-29
2022/07/11 09:51:43;;;;;;;3.05;1.10;;;;;;;27.40;34.38;96998.78;5093570;28;20025;-30
2022/07/11 09:54:10;;;;;;;4.47;1.58;;;;;;;27.28;34.85;97000.19;5093349;28;20424;-29
2022/07/11 09:56:43;;;;;;;1.88;1.33;;;;;;;27.33;35.27;96999.34;5093408;28;20111;-29
2022/07/11 09:59:10;;;;;;;4.25;1.67;;;;;;;27.53;34.37;97012.78;5093313;28;20024;-29
2022/07/11 10:01:37;;;;;;;2.47;1.40;;;;;;;27.49;34.38;97001.19;5093317;28;20031;-29
2022/07/11 10:04:06;;;;;;;2.25;1.40;;;;;;;27.40;34.06;97004.34;5093576;28;20086;-29
2022/07/11 10:06:31;;;;;;;1.52;1.40;;;;;;;27.44;33.72;97004.03;5093224;28;20463;-29
2022/07/11 10:08:57;;;;;;;2.50;1.00;;;;;;;27.34;32.43;97000.84;5093355;28;20022;-29
2022/07/11 10:11:23;;;;;;;4.53;1.30;;;;;;;27.25;32.68;96995.66;5093906;28;20441;-29
2022/07/11 10:13:50;;;;;;;2.95;1.30;;;;;;;27.35;33.98;96991.22;5093299;28;20020;-29
2022/07/11 10:16:34;;;;;;;1.20;1.10;;;;;;;27.27;33.16;96990.31;5093360;28;20048;-30
2022/07/11 10:19:29;;;;;;;3.90;1.30;;;;;;;27.43;34.04;97000.50;5093243;28;20024;-29
2022/07/11 10:22:22;;;;;;;1.50;1.00;;;;;;;27.35;34.32;96996.78;5093306;28;20020;-29
2022/07/11 10:25:05;;;;;;;3.20;1.35;;;;;;;27.47;34.14;96995.38;5093190;28;20020;-30
2022/07/11 10:27:54;;;;;;;2.55;1.20;;;;;;;27.46;34.24;96995.91;5093666;28;20020;-29
2022/07/11 10:30:59;;;;;;;1.60;1.17;;;;;;;27.50;33.71;97001.94;5093100;28;20431;-30
2022/07/11 10:33:27;;;;;;;1.20;0.93;;;;;;;27.36;34.14;96991.97;5089964;28;20039;-30
2022/07/11 10:35:53;;;;;;;6.13;1.33;;;;;;;27.52;33.56;97004.94;5097010;28;20042;-30
2022/07/11 10:38:20;;;;;;;1.42;0.98;;;;;;;27.49;33.81;97001.19;5097154;28;20020;-29
2022/07/11 10:40:56;;;;;;;1.38;1.10;;;;;;;27.28;33.94;96986.25;5097182;28;20465;-30
2022/07/11 10:43:22;;;;;;;2.58;1.20;;;;;;;27.53;33.70;96987.72;5097051;28;20028;-30
2022/07/11 10:46:02;;;;;;;2.50;1.20;;;;;;;27.62;33.36;96989.38;5096923;28;20073;-29
2022/07/11 10:48:31;;;;;;;2.10;1.40;;;;;;;27.48;33.43;96982.94;5096876;28;20092;-29
2022/07/11 10:50:56;;;;;;;1.15;1.00;;;;;;;27.64;33.09;97000.00;5096741;28;20367;-29
2022/07/11 10:53:23;;;;;;;1.42;1.20;;;;;;;27.68;33.03;96992.09;5096950;28;20061;-29
2022/07/11 10:56:10;;;;;;;1.40;1.20;;;;;;;27.57;33.50;96983.91;5096912;28;20477;-30
2022/07/11 10:58:41;;;;;;;1.85;1.20;;;;;;;27.60;32.78;96985.63;5096787;28;20051;-30
2022/07/11 11:01:11;;;;;;;2.75;1.20;;;;;;;27.77;32.94;97000.09;5096993;28;20062;-30
2022/07/11 11:03:38;;;;;;;1.90;1.25;;;;;;;27.68;32.78;96992.09;5096813;28;20025;-29
2022/07/11 11:06:03;;;;;;;2.50;1.15;;;;;;;27.60;33.22;96988.41;5096692;28;20028;-29
2022/07/11 11:08:32;;;;;;;1.67;1.05;;;;;;;27.66;32.79;96991.88;5096415;28;20044;-29
2022/07/11 11:10:59;;;;;;;1.90;1.00;;;;;;;27.70;32.51;96979.13;5096531;28;20028;-30
2022/07/11 11:13:35;;;;;;;2.38;1.10;;;;;;;27.73;32.48;96972.50;5096498;28;20436;-30
2022/07/11 11:16:02;;;;;;;1.95;1.20;;;;;;;27.66;33.06;96975.91;5096450;28;20028;-30
2022/07/11 11:18:36;;;;;;;1.70;0.90;;;;;;;27.66;32.67;96987.06;5096625;28;20019;-30
2022/07/11 11:21:07;;;;;;;1.10;1.00;;;;;;;27.64;32.71;96972.91;5096264;28;20016;-29
2022/07/11 11:23:40;;;;;;;1.15;1.00;;;;;;;27.58;32.76;96968.66;5096468;28;20454;-29
2022/07/11 11:26:11;;;;;;;1.42;0.98;;;;;;;27.66;33.02;96972.38;5096258;28;20102;-29
2022/07/11 11:28:38;;;;;;;1.85;1.00;;;;;;;27.76;32.28;96970.72;5096290;28;20466;-30
2022/07/11 11:31:05;;;;;;;3.53;1.10;;;;;;;27.65;32.43;96966.03;5095930;28;20020;-29
2022/07/11 11:33:33;;;;;;;1.98;1.08;;;;;;;27.69;32.37;96966.50;5096021;28;20028;-30
2022/07/11 11:36:03;;;;;;;1.42;1.15;;;;;;;27.86;32.60;96966.25;5096156;28;20453;-30
2022/07/11 11:38:32;;;;;;;0.98;0.93;;;;;;;27.60;32.58;96966.13;5095834;28;20028;-30
2022/07/11 11:40:58;;;;;;;1.67;1.27;;;;;;;27.66;32.46;96969.59;5095858;28;20024;-30